Arbor Hill, Iowa
Current Conditions -  °F | °C
As of 1:15 AM on Friday 31 Oct 2014 (Local Time) from KPRO Reporting Station
Overcast Overcast  
Wind Chill: -1°   Ceiling: 3100
Heat Index:   Visibility: 10mi
Dew Point: -2°   Wind: 18mph
Humidity: 64%   Direction: 340°NNW
Pressure: 30.34"   Gusts: 25mph
Location:  41.5397°N, 94.299°W
Report Text: KPRO 310615Z AUTO 34016G22KT 10SM OVC031 04/M02 A3034 RMK AO2 T00431020
Loading
Personal Weather Stations






























Interactive Weather Map
Tropical Storm Tracking
New forecast layout! Learn more

10-Day Weather Forecast

Advertisements
Track Severe Weather on mobile